Time;durP1;ratioP1;P1;durP2;ratioP2;P2;SDS_P1;SDS_P2;PMS_P1;PMS_P2;Temp;Humidity;BMP_temperature;BMP_pressure;BME280_temperature;BME280_humidity;BME280_pressure;Samples;Min_cycle;Max_cycle;Signal;HPM_P1;HPM_P2
2022/07/03 00:01:48;;;;;;;8.05;3.15;;;24.40;90.90;;;;;;5090341;28;20043;-71
2022/07/03 00:04:14;;;;;;;10.02;3.72;;;24.30;91.00;;;;;;5091728;28;20398;-71
2022/07/03 00:06:40;;;;;;;6.47;3.42;;;24.30;91.10;;;;;;5091327;28;20036;-71
2022/07/03 00:09:06;;;;;;;7.13;2.95;;;24.20;91.30;;;;;;5091583;28;20028;-71
2022/07/03 00:11:32;;;;;;;7.50;3.28;;;24.10;91.20;;;;;;5095023;28;20035;-71
2022/07/03 00:13:58;;;;;;;7.15;3.25;;;24.10;91.30;;;;;;5095434;28;20098;-71
2022/07/03 00:16:24;;;;;;;5.18;3.08;;;24.10;91.40;;;;;;5092851;28;20468;-71
2022/07/03 00:18:50;;;;;;;4.80;2.90;;;24.00;91.50;;;;;;5094290;28;20036;-71
2022/07/03 00:21:48;;;;;;;11.15;3.67;;;24.00;91.40;;;;;;5095416;28;20039;-71
2022/07/03 00:24:28;;;;;;;9.05;2.40;;;24.00;91.50;;;;;;5093143;28;20036;-71
2022/07/03 00:26:55;;;;;;;8.93;2.95;;;24.00;91.40;;;;;;5094735;28;20682;-71
2022/07/03 00:29:22;;;;;;;8.15;2.85;;;24.00;91.50;;;;;;5094201;28;20035;-71
2022/07/03 00:31:49;;;;;;;7.43;3.17;;;23.90;91.60;;;;;;5094536;28;20047;-71
2022/07/03 00:34:16;;;;;;;8.68;3.08;;;23.90;91.70;;;;;;5090127;28;20028;-71
2022/07/03 00:36:44;;;;;;;7.60;2.78;;;23.80;91.60;;;;;;5089965;28;20478;-71
2022/07/03 00:39:09;;;;;;;6.55;2.78;;;23.80;91.70;;;;;;5094804;28;20085;-71
2022/07/03 00:41:35;;;;;;;8.05;2.83;;;23.70;91.80;;;;;;5093543;28;20435;-71
2022/07/03 00:44:01;;;;;;;5.88;2.70;;;23.80;91.80;;;;;;5094849;28;20028;-71
2022/07/03 00:46:28;;;;;;;5.00;2.60;;;23.80;91.80;;;;;;5094604;28;20740;-71
2022/07/03 00:48:57;;;;;;;6.30;3.08;;;23.80;91.80;;;;;;5094227;28;20067;-71
2022/07/03 00:51:25;;;;;;;5.28;3.08;;;23.80;91.90;;;;;;5090912;28;20069;-71
2022/07/03 00:53:54;;;;;;;7.30;2.85;;;23.80;92.00;;;;;;5094339;28;20088;-71
2022/07/03 00:56:27;;;;;;;8.85;2.90;;;23.70;92.10;;;;;;5094644;28;20028;-71
2022/07/03 00:58:55;;;;;;;9.25;3.47;;;23.70;92.20;;;;;;5092537;28;20032;-71
2022/07/03 01:01:25;;;;;;;7.43;2.90;;;23.50;92.40;;;;;;5095028;28;20424;-71
2022/07/03 01:04:07;;;;;;;8.02;3.00;;;23.50;92.50;;;;;;5094141;28;20113;-71
2022/07/03 01:06:39;;;;;;;6.43;3.28;;;23.40;92.70;;;;;;5094495;28;20119;-71
2022/07/03 01:09:06;;;;;;;6.43;3.15;;;23.40;92.80;;;;;;5093291;28;20036;-71
2022/07/03 01:11:42;;;;;;;7.57;4.18;;;23.30;92.90;;;;;;5094272;28;20105;-71
2022/07/03 01:14:19;;;;;;;8.18;3.63;;;23.30;93.00;;;;;;5094373;28;20028;-71
2022/07/03 01:17:06;;;;;;;4.85;3.10;;;23.20;93.10;;;;;;5094002;28;20028;-71
2022/07/03 01:19:41;;;;;;;6.65;3.17;;;23.20;93.10;;;;;;5092786;28;20390;-71
2022/07/03 01:22:35;;;;;;;4.97;3.00;;;23.10;93.10;;;;;;5093391;28;20028;-71
2022/07/03 01:25:09;;;;;;;7.83;3.70;;;23.10;93.20;;;;;;5087450;28;20035;-71
2022/07/03 01:27:58;;;;;;;6.70;3.33;;;23.00;93.30;;;;;;5092988;28;20313;-71
2022/07/03 01:30:30;;;;;;;6.85;3.53;;;23.00;93.40;;;;;;5091648;28;20040;-71
2022/07/03 01:33:18;;;;;;;5.85;3.22;;;23.00;93.50;;;;;;5093421;28;20108;-71
2022/07/03 01:36:07;;;;;;;8.25;3.22;;;23.00;93.40;;;;;;5090396;28;20036;-71
2022/07/03 01:38:34;;;;;;;8.48;3.92;;;23.00;93.40;;;;;;5093182;28;20038;-71
2022/07/03 01:41:02;;;;;;;6.57;3.55;;;23.00;93.60;;;;;;5093712;28;20084;-71
2022/07/03 01:43:30;;;;;;;6.32;3.42;;;23.00;93.50;;;;;;5089569;28;20101;-71
2022/07/03 01:45:58;;;;;;;5.15;3.10;;;23.00;93.50;;;;;;5093653;28;20036;-71
2022/07/03 01:48:25;;;;;;;7.20;3.00;;;22.90;93.40;;;;;;5093404;28;20032;-71
2022/07/03 01:50:52;;;;;;;4.80;3.05;;;22.90;93.40;;;;;;5088722;28;20067;-71
2022/07/03 01:53:18;;;;;;;7.20;3.55;;;23.00;93.30;;;;;;5093239;28;20040;-72
2022/07/03 01:55:44;;;;;;;8.02;3.17;;;23.00;93.20;;;;;;5093584;28;20122;-71
2022/07/03 01:58:11;;;;;;;7.32;3.08;;;23.00;93.30;;;;;;5092920;28;20465;-71
2022/07/03 02:01:07;;;;;;;5.82;3.45;;;22.80;93.40;;;;;;5093360;28;20038;-71
2022/07/03 02:03:37;;;;;;;7.90;3.17;;;22.80;93.50;;;;;;5088537;28;20039;-71
2022/07/03 02:06:06;;;;;;;6.75;3.53;;;22.70;93.60;;;;;;5093466;28;20375;-71
2022/07/03 02:09:03;;;;;;;7.07;3.10;;;22.70;93.70;;;;;;5093360;28;20032;-71
2022/07/03 02:11:35;;;;;;;6.22;3.33;;;22.70;93.70;;;;;;5086915;28;20071;-72
2022/07/03 02:14:22;;;;;;;9.75;3.55;;;22.60;93.70;;;;;;5092761;28;20390;-71
2022/07/03 02:17:08;;;;;;;8.95;2.63;;;22.60;93.80;;;;;;5089003;28;20060;-71
2022/07/03 02:19:49;;;;;;;4.88;3.42;;;22.60;93.80;;;;;;5093232;28;20032;-71
2022/07/03 02:22:18;;;;;;;6.00;3.17;;;22.50;93.90;;;;;;5080796;28;20060;-71
2022/07/03 02:24:45;;;;;;;4.97;2.97;;;22.60;93.90;;;;;;5089421;28;20123;-71
2022/07/03 02:27:19;;;;;;;8.98;2.70;;;22.60;93.80;;;;;;5087902;28;20089;-71
2022/07/03 02:29:55;;;;;;;6.22;3.17;;;22.60;93.80;;;;;;5084061;28;20041;-71
2022/07/03 02:32:22;;;;;;;5.35;2.70;;;22.60;93.70;;;;;;5090488;28;20035;-72
2022/07/03 02:35:10;;;;;;;8.50;3.17;;;22.50;93.80;;;;;;5092397;28;20048;-71
2022/07/03 02:38:08;;;;;;;10.98;3.03;;;22.60;93.90;;;;;;5092961;28;20020;-71
2022/07/03 02:41:03;;;;;;;5.45;3.03;;;22.60;93.90;;;;;;5082581;28;20567;-71
2022/07/03 02:43:56;;;;;;;7.78;3.28;;;22.70;93.90;;;;;;5082457;28;20050;-71
2022/07/03 02:46:49;;;;;;;8.32;3.40;;;22.60;93.90;;;;;;5092905;28;20485;-71
2022/07/03 02:49:24;;;;;;;9.68;3.45;;;22.50;94.10;;;;;;5091172;28;20028;-71
2022/07/03 02:52:08;;;;;;;7.90;3.00;;;22.60;94.20;;;;;;5088521;28;20024;-71
2022/07/03 02:54:42;;;;;;;7.47;3.75;;;22.50;94.20;;;;;;5091292;28;20401;-71
2022/07/03 02:57:08;;;;;;;;;;;22.50;94.20;;;;;;5092600;28;20024;-71
2022/07/03 02:59:39;;;;;;;6.25;3.30;;;22.40;94.30;;;;;;5091304;28;19930;-71
2022/07/03 03:02:17;;;;;;;6.97;3.28;;;22.50;94.30;;;;;;5088960;28;20032;-70
2022/07/03 03:04:58;;;;;;;5.43;3.05;;;22.40;94.40;;;;;;5077570;28;20455;-70
2022/07/03 03:07:33;;;;;;;7.38;3.22;;;22.40;94.30;;;;;;5081977;28;20036;-70
2022/07/03 03:09:59;;;;;;;6.88;3.60;;;22.40;94.30;;;;;;5086384;28;20516;-70
2022/07/03 03:12:30;;;;;;;6.47;3.67;;;22.40;94.10;;;;;;5086285;28;20099;-70
2022/07/03 03:15:01;;;;;;;7.60;3.53;;;22.30;94.20;;;;;;5086549;28;20055;-71
2022/07/03 03:17:42;;;;;;;7.18;3.78;;;22.30;94.30;;;;;;5071782;28;20035;-70
2022/07/03 03:20:09;;;;;;;8.50;3.70;;;22.20;94.40;;;;;;5083100;28;20036;-70
2022/07/03 03:23:04;;;;;;;6.80;3.33;;;22.20;94.40;;;;;;5083788;28;20031;-70
2022/07/03 03:25:30;;;;;;;7.82;2.88;;;22.10;94.50;;;;;;5076449;28;20101;-70
2022/07/03 03:27:56;;;;;;;10.40;3.88;;;22.20;94.50;;;;;;5084072;28;20483;-70
2022/07/03 03:30:21;;;;;;;6.88;2.97;;;22.10;94.40;;;;;;5085779;28;20130;-70
2022/07/03 03:32:47;;;;;;;6.18;3.13;;;22.10;94.50;;;;;;5086176;28;20032;-70
2022/07/03 03:35:13;;;;;;;4.85;3.08;;;22.10;94.70;;;;;;5086731;28;20051;-70
2022/07/03 03:37:38;;;;;;;5.90;3.53;;;22.30;94.60;;;;;;5086284;28;20028;-70
2022/07/03 03:40:05;;;;;;;9.07;3.35;;;22.60;94.50;;;;;;5085715;28;20494;-70
2022/07/03 03:42:31;;;;;;;6.53;2.63;;;22.60;94.40;;;;;;5086078;28;20079;-70
2022/07/03 03:44:57;;;;;;;7.68;3.80;;;22.60;94.50;;;;;;5088755;28;20585;-70
2022/07/03 03:47:23;;;;;;;6.32;3.03;;;22.60;94.40;;;;;;5087635;28;20075;-70
2022/07/03 03:49:49;;;;;;;6.15;2.97;;;22.50;94.30;;;;;;5087126;28;20054;-70
2022/07/03 03:52:14;;;;;;;8.95;3.30;;;22.40;94.30;;;;;;5089243;28;20061;-70
2022/07/03 03:54:40;;;;;;;6.43;3.10;;;22.30;94.40;;;;;;5088016;28;20374;-70
2022/07/03 03:57:20;;;;;;;6.15;2.97;;;22.20;94.50;;;;;;5088999;28;20031;-71
2022/07/03 03:59:45;;;;;;;8.77;3.50;;;22.20;94.70;;;;;;5083522;28;20034;-70
2022/07/03 04:02:12;;;;;;;5.40;3.10;;;22.10;94.90;;;;;;5086733;28;20020;-70
2022/07/03 04:04:38;;;;;;;5.57;3.00;;;22.10;95.00;;;;;;5082193;28;20043;-70
2022/07/03 04:07:04;;;;;;;6.22;3.47;;;22.10;95.10;;;;;;5089918;28;20123;-70
2022/07/03 04:09:30;;;;;;;7.38;3.38;;;22.00;95.20;;;;;;5090281;28;20032;-70
2022/07/03 04:11:56;;;;;;;7.57;3.85;;;21.80;95.50;;;;;;5090238;28;20051;-70
2022/07/03 04:14:21;;;;;;;6.32;3.45;;;21.70;95.90;;;;;;5087962;28;20089;-70
2022/07/03 04:16:47;;;;;;;6.47;2.80;;;21.80;95.70;;;;;;5085617;28;20432;-70
2022/07/03 04:19:13;;;;;;;6.13;3.40;;;21.60;95.90;;;;;;5086711;28;20033;-70
2022/07/03 04:21:38;;;;;;;6.82;3.20;;;21.70;96.20;;;;;;5084402;28;20078;-70
2022/07/03 04:24:04;;;;;;;6.95;3.20;;;21.60;96.20;;;;;;5086556;28;20458;-70
2022/07/03 04:26:30;;;;;;;6.82;2.88;;;21.70;96.10;;;;;;5089980;28;20457;-70
2022/07/03 04:28:56;;;;;;;7.70;3.20;;;21.80;96.10;;;;;;5089267;28;20474;-70
2022/07/03 04:31:21;;;;;;;7.53;3.13;;;21.80;95.90;;;;;;5087009;28;20040;-70
2022/07/03 04:33:47;;;;;;;4.88;2.90;;;21.80;95.80;;;;;;5087850;28;20072;-70
2022/07/03 04:36:12;;;;;;;7.40;3.65;;;21.80;95.90;;;;;;5089870;28;20032;-70
2022/07/03 04:38:38;;;;;;;6.22;3.05;;;21.90;95.90;;;;;;5089730;28;20491;-70
2022/07/03 04:41:04;;;;;;;9.80;3.88;;;21.90;96.10;;;;;;5089854;28;20274;-70
2022/07/03 04:43:29;;;;;;;7.70;3.47;;;21.80;96.20;;;;;;5089494;28;20077;-70
2022/07/03 04:45:55;;;;;;;10.32;3.75;;;21.90;96.30;;;;;;5088444;28;20389;-70
2022/07/03 04:48:20;;;;;;;8.73;3.28;;;21.90;96.30;;;;;;5084893;28;20298;-70
2022/07/03 04:50:46;;;;;;;7.82;3.47;;;21.90;96.30;;;;;;5086596;28;20042;-70
2022/07/03 04:53:12;;;;;;;5.82;3.53;;;22.00;96.30;;;;;;5086909;28;20064;-70
2022/07/03 04:55:37;;;;;;;6.70;3.45;;;22.00;96.60;;;;;;5079963;28;20237;-70
2022/07/03 04:58:03;;;;;;;7.82;3.80;;;22.00;96.80;;;;;;5087421;28;20423;-70
2022/07/03 05:00:28;;;;;;;10.77;3.15;;;22.00;97.00;;;;;;5088839;28;20028;-70
2022/07/03 05:02:54;;;;;;;10.30;3.65;;;22.00;96.60;;;;;;5085266;28;20113;-70
2022/07/03 05:05:20;;;;;;;9.27;3.72;;;21.90;96.80;;;;;;5086660;28;20364;-70
2022/07/03 05:07:45;;;;;;;8.98;3.53;;;21.60;97.40;;;;;;5087985;28;20071;-70
2022/07/03 05:10:11;;;;;;;9.05;3.60;;;21.60;97.90;;;;;;5088758;28;20181;-70
2022/07/03 05:12:36;;;;;;;6.88;3.15;;;21.60;97.80;;;;;;5089345;28;20035;-70
2022/07/03 05:15:03;;;;;;;7.45;2.95;;;21.50;98.20;;;;;;5088722;28;20043;-70
2022/07/03 05:17:28;;;;;;;7.70;3.40;;;21.40;98.40;;;;;;5088805;28;20028;-70
2022/07/03 05:22:38;;;;;;;9.30;3.78;;;21.80;97.70;;;;;;5082501;28;20497;-70
2022/07/03 05:25:05;;;;;;;5.90;3.30;;;21.90;97.50;;;;;;5083775;28;20044;-70
2022/07/03 05:27:30;;;;;;;7.85;4.45;;;22.00;97.40;;;;;;5088744;28;20117;-70
2022/07/03 05:29:56;;;;;;;5.45;3.17;;;22.10;97.50;;;;;;5087764;28;20083;-70
2022/07/03 05:32:21;;;;;;;7.22;3.22;;;22.20;97.50;;;;;;5079247;28;20078;-70
2022/07/03 05:34:47;;;;;;;9.63;3.92;;;22.30;97.30;;;;;;5079743;28;20028;-70
2022/07/03 05:37:13;;;;;;;9.55;3.35;;;22.40;97.00;;;;;;5088100;28;20262;-70
2022/07/03 05:39:38;;;;;;;7.45;3.58;;;22.50;97.10;;;;;;5083977;28;20189;-70
2022/07/03 05:42:05;;;;;;;7.72;3.58;;;22.40;97.40;;;;;;5086454;28;20034;-70
2022/07/03 05:44:31;;;;;;;6.53;3.33;;;22.50;97.50;;;;;;5088264;28;20560;-70
2022/07/03 05:46:56;;;;;;;7.18;3.10;;;22.50;97.40;;;;;;5086313;28;20039;-70
2022/07/03 05:49:22;;;;;;;6.75;3.15;;;22.70;97.50;;;;;;5087277;28;20032;-71
2022/07/03 05:51:48;;;;;;;7.68;3.50;;;22.70;97.40;;;;;;5088022;28;20102;-70
2022/07/03 05:54:13;;;;;;;6.20;3.47;;;22.80;97.40;;;;;;5088019;28;20036;-70
2022/07/03 05:56:39;;;;;;;7.63;3.83;;;22.80;97.30;;;;;;5083678;28;20436;-70
2022/07/03 05:59:05;;;;;;;5.45;3.35;;;22.90;97.80;;;;;;5085499;28;20036;-70
2022/07/03 06:01:30;;;;;;;8.05;3.80;;;22.80;97.70;;;;;;5085130;28;20666;-70
2022/07/03 06:03:56;;;;;;;6.13;3.72;;;22.90;97.60;;;;;;5084280;28;20395;-70
2022/07/03 06:06:21;;;;;;;7.40;4.32;;;23.00;97.70;;;;;;5083486;28;20028;-70
2022/07/03 06:08:47;;;;;;;8.13;3.33;;;23.00;97.80;;;;;;5085617;28;20116;-70
2022/07/03 06:11:13;;;;;;;5.82;3.33;;;23.10;97.70;;;;;;5088246;28;20032;-70
2022/07/03 06:13:38;;;;;;;8.60;4.03;;;23.20;97.50;;;;;;5085842;28;20035;-70
2022/07/03 06:16:04;;;;;;;7.72;4.05;;;23.20;97.90;;;;;;5088193;28;20431;-70
2022/07/03 06:18:30;;;;;;;6.05;3.95;;;23.10;97.80;;;;;;5087239;28;20525;-70
2022/07/03 06:20:56;;;;;;;8.32;4.55;;;23.20;97.50;;;;;;5087677;28;20031;-70
2022/07/03 06:23:21;;;;;;;6.20;4.65;;;23.30;97.40;;;;;;5087250;28;20035;-70
2022/07/03 06:25:47;;;;;;;7.80;4.00;;;23.40;97.40;;;;;;5087158;28;20028;-70
2022/07/03 06:28:13;;;;;;;8.15;4.18;;;23.40;97.70;;;;;;5083857;28;20394;-70
2022/07/03 06:30:38;;;;;;;7.70;3.70;;;23.50;97.70;;;;;;5083335;28;20041;-70
2022/07/03 06:33:04;;;;;;;6.85;4.20;;;23.50;97.40;;;;;;5087168;28;20052;-70
2022/07/03 06:35:29;;;;;;;7.15;4.05;;;23.40;96.80;;;;;;5078544;28;20067;-70
2022/07/03 06:37:55;;;;;;;10.90;4.55;;;23.60;96.20;;;;;;5087332;28;20038;-70
2022/07/03 06:40:21;;;;;;;6.40;3.97;;;23.70;95.10;;;;;;5084763;28;20158;-70
2022/07/03 06:42:46;;;;;;;7.30;3.92;;;23.80;95.00;;;;;;5083767;28;20470;-70
2022/07/03 06:45:12;;;;;;;8.60;4.90;;;23.90;95.90;;;;;;5084235;28;20972;-70
2022/07/03 06:47:39;;;;;;;7.85;5.30;;;23.90;96.70;;;;;;5082896;28;20044;-70
2022/07/03 06:50:06;;;;;;;9.23;4.63;;;23.90;96.70;;;;;;5084164;28;20032;-70
2022/07/03 06:52:31;;;;;;;8.50;4.78;;;24.00;96.70;;;;;;5085303;28;20407;-70
2022/07/03 06:54:57;;;;;;;11.07;4.47;;;24.10;96.50;;;;;;5086781;28;20028;-70
2022/07/03 06:57:22;;;;;;;7.90;4.47;;;24.10;96.10;;;;;;5082987;28;20024;-70
2022/07/03 06:59:48;;;;;;;7.90;4.43;;;24.30;96.00;;;;;;5087325;28;20024;-70
2022/07/03 07:02:14;;;;;;;8.10;4.38;;;24.30;95.80;;;;;;5086349;28;20567;-70
2022/07/03 07:04:39;;;;;;;8.70;4.72;;;24.50;95.30;;;;;;5081469;28;20064;-70
2022/07/03 07:07:05;;;;;;;9.30;4.57;;;24.80;95.10;;;;;;5084422;28;20048;-70
2022/07/03 07:09:31;;;;;;;6.00;4.13;;;25.00;94.40;;;;;;5086000;28;20063;-70
2022/07/03 07:11:56;;;;;;;9.60;4.32;;;25.20;94.10;;;;;;5086324;28;20016;-70
2022/07/03 07:14:22;;;;;;;8.40;4.50;;;25.30;94.00;;;;;;5086969;28;20042;-70
2022/07/03 07:16:48;;;;;;;6.80;4.30;;;25.60;93.40;;;;;;5086470;28;20036;-70
2022/07/03 07:19:14;;;;;;;6.05;4.07;;;25.90;93.10;;;;;;5086022;28;20098;-70
2022/07/03 07:21:39;;;;;;;8.95;4.45;;;26.20;92.90;;;;;;5081811;28;20024;-70
2022/07/03 07:24:05;;;;;;;7.88;4.25;;;26.40;92.90;;;;;;5087189;28;20023;-70
2022/07/03 07:26:31;;;;;;;6.95;3.55;;;26.70;92.60;;;;;;5086735;28;20083;-70
2022/07/03 07:28:57;;;;;;;6.38;3.85;;;26.80;92.30;;;;;;5086013;28;20457;-70
2022/07/03 07:31:22;;;;;;;10.52;4.38;;;27.00;92.30;;;;;;5086087;28;20134;-70
2022/07/03 07:33:48;;;;;;;9.40;4.35;;;27.50;91.70;;;;;;5077842;28;20093;-70
2022/07/03 07:36:14;;;;;;;9.48;4.60;;;28.00;91.90;;;;;;5086935;28;20036;-70
2022/07/03 07:38:40;;;;;;;5.32;3.78;;;28.90;91.00;;;;;;5085556;28;20054;-71
2022/07/03 07:41:05;;;;;;;5.53;4.18;;;29.80;90.10;;;;;;5086474;28;20491;-70
2022/07/03 07:43:31;;;;;;;7.88;4.60;;;30.40;88.60;;;;;;5085917;28;20052;-69
2022/07/03 07:45:56;;;;;;;6.72;3.70;;;31.10;87.30;;;;;;5092366;28;20031;-70
2022/07/03 07:48:22;;;;;;;5.72;3.25;;;30.80;86.50;;;;;;5084830;28;20069;-71
2022/07/03 07:50:49;;;;;;;9.48;4.15;;;31.10;86.20;;;;;;5081915;28;20155;-71
2022/07/03 07:53:15;;;;;;;7.15;3.53;;;30.80;86.20;;;;;;5081839;28;20024;-71
2022/07/03 07:55:41;;;;;;;6.43;3.67;;;31.00;86.50;;;;;;5077161;28;20047;-71
2022/07/03 07:58:08;;;;;;;11.07;4.25;;;30.30;87.10;;;;;;5083000;28;20028;-71
2022/07/03 08:00:33;;;;;;;7.43;3.88;;;30.50;87.20;;;;;;5082008;28;20027;-71
2022/07/03 08:05:43;;;;;;;7.00;3.72;;;29.60;87.00;;;;;;5082178;28;20104;-71
2022/07/03 08:08:10;;;;;;;8.65;4.25;;;29.40;88.90;;;;;;5080650;28;20028;-72
2022/07/03 08:10:43;;;;;;;7.38;4.13;;;29.30;88.80;;;;;;5079448;28;20029;-72
2022/07/03 08:13:11;;;;;;;13.13;4.65;;;29.20;87.60;;;;;;5072819;28;20098;-71
2022/07/03 08:15:37;;;;;;;11.45;4.30;;;29.30;88.20;;;;;;5081869;28;20038;-71
2022/07/03 08:18:05;;;;;;;8.00;3.88;;;28.90;88.60;;;;;;5082677;28;20107;-71
2022/07/03 08:20:30;;;;;;;23.00;4.90;;;29.30;87.50;;;;;;5082440;28;20032;-71
2022/07/03 08:22:56;;;;;;;10.40;3.83;;;29.00;89.10;;;;;;5081828;28;20095;-72
2022/07/03 08:25:22;;;;;;;7.93;3.42;;;29.00;88.70;;;;;;5082223;28;20440;-71
2022/07/03 08:27:48;;;;;;;7.53;4.25;;;29.20;89.40;;;;;;5081909;28;20048;-71
2022/07/03 08:30:17;;;;;;;6.05;3.75;;;29.30;88.60;;;;;;5074876;28;20117;-71
2022/07/03 08:32:46;;;;;;;6.65;4.35;;;29.60;87.70;;;;;;5081306;28;20024;-71
2022/07/03 08:35:13;;;;;;;10.18;4.25;;;29.60;87.00;;;;;;5085642;28;20040;-71
2022/07/03 08:37:40;;;;;;;8.02;3.72;;;29.80;88.70;;;;;;5084549;28;20367;-71
2022/07/03 08:40:07;;;;;;;7.68;4.13;;;29.70;87.70;;;;;;5086105;28;20035;-71
2022/07/03 08:42:36;;;;;;;10.18;4.97;;;29.80;86.60;;;;;;5085580;28;20027;-71
2022/07/03 08:45:02;;;;;;;8.23;3.47;;;29.90;86.30;;;;;;5085598;28;20058;-71
2022/07/03 08:47:31;;;;;;;6.28;3.63;;;30.00;87.90;;;;;;5081560;28;20490;-71
2022/07/03 08:50:00;;;;;;;7.15;3.63;;;29.80;85.90;;;;;;5082855;28;20448;-71
2022/07/03 08:52:26;;;;;;;7.03;3.53;;;29.60;86.50;;;;;;5085302;28;20055;-71
2022/07/03 08:54:52;;;;;;;6.88;3.90;;;29.70;87.30;;;;;;5086293;28;20297;-71
2022/07/03 08:57:18;;;;;;;8.10;4.57;;;30.00;87.10;;;;;;5085507;28;20176;-71
2022/07/03 08:59:50;;;;;;;7.25;4.05;;;29.80;86.30;;;;;;5086401;28;20035;-71
2022/07/03 09:02:17;;;;;;;6.53;3.75;;;29.90;86.00;;;;;;5085358;28;20093;-71
2022/07/03 09:04:43;;;;;;;7.47;4.13;;;29.90;85.60;;;;;;5084943;28;20504;-71
2022/07/03 09:07:10;;;;;;;5.35;3.50;;;30.10;85.60;;;;;;5084967;28;20077;-71
2022/07/03 09:09:37;;;;;;;8.23;4.35;;;29.50;86.20;;;;;;5079915;28;20401;-71
2022/07/03 09:12:03;;;;;;;5.82;3.90;;;29.50;86.50;;;;;;5085568;28;20020;-71
2022/07/03 09:14:29;;;;;;;6.47;4.25;;;30.10;87.40;;;;;;5085246;28;20047;-71
2022/07/03 09:16:55;;;;;;;5.63;3.85;;;30.60;86.50;;;;;;5084772;28;20036;-71
2022/07/03 09:19:47;;;;;;;7.10;3.67;;;30.30;85.50;;;;;;5085329;28;20093;-71
2022/07/03 09:22:21;;;;;;;7.18;3.65;;;30.50;85.20;;;;;;5079483;28;20183;-71
2022/07/03 09:24:48;;;;;;;5.72;3.45;;;30.70;84.40;;;;;;5085527;28;20031;-72
2022/07/03 09:27:18;;;;;;;7.55;4.05;;;31.20;84.40;;;;;;5084036;28;20039;-72
2022/07/03 09:30:05;;;;;;;8.27;4.03;;;31.00;83.60;;;;;;5085314;28;20470;-71
2022/07/03 09:32:34;;;;;;;8.65;3.47;;;30.80;83.80;;;;;;5084855;28;20524;-72
2022/07/03 09:35:20;;;;;;;6.93;3.80;;;31.10;84.20;;;;;;5085278;28;20278;-71
2022/07/03 09:37:54;;;;;;;7.05;3.97;;;31.30;84.50;;;;;;5083428;28;20032;-71
2022/07/03 09:40:21;;;;;;;7.18;3.50;;;31.60;84.00;;;;;;5084475;28;20043;-71
2022/07/03 09:43:02;;;;;;;7.22;4.35;;;31.50;83.30;;;;;;5083890;28;20028;-71
2022/07/03 09:45:47;;;;;;;6.22;3.50;;;31.50;83.90;;;;;;5085054;28;20409;-71
2022/07/03 09:48:25;;;;;;;6.30;3.70;;;31.40;82.30;;;;;;5084902;28;20036;-72
2022/07/03 09:51:13;;;;;;;10.30;3.30;;;31.40;81.90;;;;;;5085068;28;20036;-72
2022/07/03 09:53:58;;;;;;;5.03;3.13;;;31.70;82.20;;;;;;5080040;28;20028;-72
2022/07/03 09:56:28;;;;;;;6.95;3.95;;;31.60;82.00;;;;;;5075107;28;20040;-72
2022/07/03 09:59:07;;;;;;;53.08;6.30;;;32.30;82.30;;;;;;5082195;28;20040;-72
2022/07/03 10:01:38;;;;;;;7.80;3.35;;;32.10;81.80;;;;;;5078497;28;20036;-72
2022/07/03 10:04:10;;;;;;;6.53;3.88;;;32.40;81.60;;;;;;5084394;28;20051;-72
2022/07/03 10:06:53;;;;;;;9.35;3.78;;;32.90;81.00;;;;;;5083531;28;20509;-72
2022/07/03 10:09:27;;;;;;;6.03;3.70;;;32.80;81.90;;;;;;5081624;28;20028;-71
2022/07/03 10:11:54;;;;;;;6.85;3.53;;;32.70;82.00;;;;;;5079433;28;20501;-73
2022/07/03 10:14:22;;;;;;;8.68;3.50;;;33.00;81.80;;;;;;5084034;28;20463;-72
2022/07/03 10:16:48;;;;;;;4.78;3.10;;;32.70;81.60;;;;;;5083280;28;20020;-72
2022/07/03 10:19:21;;;;;;;6.97;3.10;;;32.70;79.70;;;;;;5084714;28;20081;-72
2022/07/03 10:21:53;;;;;;;7.72;4.05;;;32.60;80.00;;;;;;5082691;28;20036;-72
2022/07/03 10:24:20;;;;;;;7.80;4.07;;;32.40;78.90;;;;;;5085223;28;20036;-72
2022/07/03 10:26:47;;;;;;;5.90;3.78;;;32.60;79.50;;;;;;5082977;28;20043;-72
2022/07/03 10:29:15;;;;;;;7.85;3.38;;;32.80;78.10;;;;;;5083778;28;20056;-72
2022/07/03 10:31:45;;;;;;;7.60;3.38;;;33.20;78.20;;;;;;5085006;28;20070;-72
2022/07/03 10:34:11;;;;;;;4.43;2.67;;;33.70;78.10;;;;;;5084698;28;20059;-72
2022/07/03 10:36:39;;;;;;;7.88;3.28;;;33.90;77.10;;;;;;5077309;28;20056;-72
2022/07/03 10:39:06;;;;;;;6.47;3.17;;;33.80;77.90;;;;;;5081110;28;20032;-72
2022/07/03 10:47:47;;;;;;;5.50;2.92;;;34.00;77.90;;;;;;5079375;28;20050;-72
2022/07/03 10:50:36;;;;;;;7.50;3.70;;;33.80;76.30;;;;;;5084672;28;20028;-72
2022/07/03 10:53:25;;;;;;;5.65;3.33;;;34.20;77.20;;;;;;5084479;28;20028;-72
2022/07/03 10:56:16;;;;;;;14.32;8.73;;;34.20;78.80;;;;;;5081259;28;20048;-72
2022/07/03 10:58:58;;;;;;;11.40;4.05;;;34.10;76.90;;;;;;5083214;28;20044;-72
2022/07/03 11:01:28;;;;;;;6.65;3.83;;;33.60;75.80;;;;;;5085096;28;20497;-72
2022/07/03 11:03:59;;;;;;;8.02;3.53;;;33.50;76.60;;;;;;5083018;28;20040;-72
2022/07/03 11:07:07;;;;;;;6.88;3.50;;;34.00;77.70;;;;;;5084861;28;20020;-72
2022/07/03 11:09:33;;;;;;;5.30;3.90;;;34.30;77.40;;;;;;5073492;28;20092;-72
2022/07/03 11:11:59;;;;;;;6.72;4.03;;;34.30;76.20;;;;;;5084640;28;20079;-72
2022/07/03 11:14:26;;;;;;;10.50;4.40;;;34.30;76.20;;;;;;5083982;28;20035;-72
2022/07/03 11:17:20;;;;;;;8.73;2.78;;;34.70;77.60;;;;;;5084634;28;20063;-72
2022/07/03 11:20:23;;;;;;;7.88;3.42;;;34.90;76.20;;;;;;5079040;28;20086;-72
2022/07/03 11:22:59;;;;;;;6.85;2.85;;;35.00;76.80;;;;;;5080787;28;20036;-72
2022/07/03 11:25:25;;;;;;;4.55;2.67;;;35.10;76.00;;;;;;5082243;28;20434;-73
2022/07/03 11:27:52;;;;;;;5.53;2.70;;;35.20;76.60;;;;;;5083457;28;20424;-72
2022/07/03 11:30:21;;;;;;;5.72;3.00;;;35.10;75.40;;;;;;5084097;28;20036;-72
2022/07/03 11:32:49;;;;;;;4.95;2.85;;;35.20;73.80;;;;;;5084481;28;20031;-71
2022/07/03 11:35:49;;;;;;;8.15;3.40;;;34.90;73.90;;;;;;5084173;28;20058;-71
2022/07/03 11:38:21;;;;;;;6.63;2.67;;;34.90;73.70;;;;;;5078046;28;20505;-71
2022/07/03 11:40:49;;;;;;;7.05;2.88;;;35.20;74.00;;;;;;5084099;28;20024;-71
2022/07/03 11:43:15;;;;;;;5.20;2.65;;;35.10;73.40;;;;;;5084372;28;20051;-71
2022/07/03 11:45:41;;;;;;;4.20;2.45;;;35.10;72.90;;;;;;5082968;28;20028;-71
2022/07/03 11:48:13;;;;;;;5.18;2.58;;;35.40;74.60;;;;;;5084310;28;20032;-71
2022/07/03 11:50:41;;;;;;;5.03;2.80;;;35.00;72.30;;;;;;5083885;28;20147;-71
2022/07/03 11:53:19;;;;;;;9.90;3.67;;;35.00;72.50;;;;;;5084088;28;20273;-71
2022/07/03 11:56:09;;;;;;;6.43;2.70;;;35.50;73.20;;;;;;5080673;28;20051;-71
2022/07/03 11:58:42;;;;;;;7.15;2.65;;;35.60;72.80;;;;;;5076103;28;20040;-71
2022/07/03 12:01:27;;;;;;;5.65;2.65;;;35.70;71.90;;;;;;5079790;28;20551;-71
2022/07/03 12:04:15;;;;;;;3.60;2.00;;;35.70;71.20;;;;;;5083130;28;20312;-71
2022/07/03 12:06:43;;;;;;;4.88;2.10;;;35.90;69.50;;;;;;5082584;28;20039;-72
2022/07/03 12:09:30;;;;;;;4.50;1.70;;;36.00;69.40;;;;;;5087538;28;20405;-71
2022/07/03 12:12:02;;;;;;;3.33;1.42;;;36.00;66.10;;;;;;5083634;28;20051;-71
2022/07/03 12:14:40;;;;;;;6.32;2.00;;;35.80;66.70;;;;;;5088551;28;20059;-71
2022/07/03 12:17:08;;;;;;;4.75;1.70;;;36.00;68.00;;;;;;5089404;28;20401;-71
2022/07/03 12:19:34;;;;;;;6.32;2.10;;;36.00;66.50;;;;;;5091450;28;20424;-71
2022/07/03 12:22:00;;;;;;;3.65;1.83;;;35.80;67.90;;;;;;5091069;28;20036;-71
2022/07/03 12:24:26;;;;;;;3.22;1.73;;;36.30;67.90;;;;;;5091261;28;20032;-71
2022/07/03 12:26:52;;;;;;;3.45;1.65;;;36.30;67.20;;;;;;5090807;28;20044;-71
2022/07/03 12:29:18;;;;;;;3.67;1.58;;;36.50;65.90;;;;;;5089863;28;20038;-71
2022/07/03 12:31:49;;;;;;;3.83;1.80;;;36.70;67.00;;;;;;5089473;28;20101;-71
2022/07/03 12:34:15;;;;;;;11.85;2.15;;;36.60;66.10;;;;;;5090928;28;20050;-71
2022/07/03 12:36:54;;;;;;;5.57;1.63;;;36.50;65.40;;;;;;5090676;28;20435;-72
2022/07/03 12:39:20;;;;;;;2.67;1.40;;;36.00;65.80;;;;;;5089066;28;20039;-71
2022/07/03 12:41:45;;;;;;;6.82;1.77;;;36.10;66.80;;;;;;5090364;28;20382;-71
2022/07/03 12:44:17;;;;;;;5.88;1.75;;;36.70;66.60;;;;;;5089387;28;20031;-72
2022/07/03 12:46:43;;;;;;;4.03;1.50;;;36.70;63.80;;;;;;5085011;28;20047;-71
2022/07/03 12:49:11;;;;;;;3.25;1.30;;;36.50;61.20;;;;;;5090347;28;20054;-71
2022/07/03 12:51:53;;;;;;;7.75;1.58;;;36.20;62.00;;;;;;5087160;28;20034;-72
2022/07/03 12:54:22;;;;;;;2.67;1.30;;;36.70;64.50;;;;;;5086136;28;20114;-71
2022/07/03 12:59:16;;;;;;;4.47;1.50;;;36.40;60.60;;;;;;5088082;28;20043;-71
2022/07/03 13:00:04;;;;;;;4.63;1.98;;;35.90;61.60;;;;;;5090043;28;20182;-72
2022/07/03 13:02:31;;;;;;;3.03;1.60;;;35.90;63.00;;;;;;5084455;28;20028;-71
2022/07/03 13:04:59;;;;;;;3.35;1.50;;;36.60;64.60;;;;;;5080634;28;20032;-73
2022/07/03 13:07:29;;;;;;;2.88;1.80;;;37.10;63.00;;;;;;5084872;28;20065;-73
2022/07/03 13:09:54;;;;;;;4.38;1.48;;;37.00;63.00;;;;;;5082032;28;20028;-72
2022/07/03 13:12:22;;;;;;;5.05;1.77;;;37.40;63.50;;;;;;5082075;28;20043;-72
2022/07/03 13:15:07;;;;;;;4.43;1.70;;;37.40;63.50;;;;;;5083886;28;20016;-72